Time;durP1;ratioP1;P1;durP2;ratioP2;P2;SDS_P1;SDS_P2;PMS_P1;PMS_P2;Temp;Humidity;BMP_temperature;BMP_pressure;BME280_temperature;BME280_humidity;BME280_pressure;Samples;Min_cycle;Max_cycle;Signal;HPM_P1;HPM_P2
2022/06/12 00:00:55;;;;;;;24.90;8.20;;;;;;;16.21;100.00;98561.50;5047726;28;20089;-57
2022/06/12 00:03:23;;;;;;;18.17;7.20;;;;;;;16.27;100.00;98549.78;5049680;28;20119;-56
2022/06/12 00:05:50;;;;;;;21.63;7.55;;;;;;;16.34;100.00;98561.69;5050711;28;20041;-57
2022/06/12 00:08:17;;;;;;;15.63;6.55;;;;;;;16.45;100.00;98553.16;5052160;28;20125;-55
2022/06/12 00:10:45;;;;;;;21.23;7.47;;;;;;;16.26;100.00;98548.06;5049287;28;20033;-57
2022/06/12 00:13:12;;;;;;;20.48;7.38;;;;;;;16.14;100.00;98550.47;5049869;28;20112;-56
2022/06/12 00:15:38;;;;;;;19.77;7.63;;;;;;;15.96;100.00;98547.03;5050127;28;20033;-57
2022/06/12 00:18:04;;;;;;;18.67;7.18;;;;;;;15.84;100.00;98550.31;5050145;28;20075;-56
2022/06/12 00:20:30;;;;;;;18.83;7.15;;;;;;;16.00;100.00;98551.19;5049070;28;20044;-57
2022/06/12 00:22:56;;;;;;;22.25;7.60;;;;;;;15.81;100.00;98558.41;5050615;28;20067;-57
2022/06/12 00:25:25;;;;;;;17.52;6.65;;;;;;;15.99;100.00;98556.56;5050726;28;20041;-57
2022/06/12 00:27:51;;;;;;;20.52;7.15;;;;;;;15.71;100.00;98547.47;5049311;28;20081;-56
2022/06/12 00:30:20;;;;;;;23.10;8.07;;;;;;;15.69;100.00;98559.00;5048242;28;20040;-56
2022/06/12 00:32:49;;;;;;;22.80;7.90;;;;;;;15.77;100.00;98549.81;5050037;28;20021;-57
2022/06/12 00:35:17;;;;;;;23.40;8.05;;;;;;;15.71;100.00;98546.63;5049533;28;20090;-56
2022/06/12 00:37:43;;;;;;;18.80;7.43;;;;;;;15.72;100.00;98546.53;5048954;28;20033;-57
2022/06/12 00:40:10;;;;;;;26.73;8.38;;;;;;;15.26;100.00;98545.50;5047787;28;20028;-56
2022/06/12 00:42:49;;;;;;;19.75;7.20;;;;;;;15.42;100.00;98554.28;5049266;28;20885;-58
2022/06/12 00:45:59;;;;;;;18.45;7.30;;;;;;;15.44;100.00;98541.91;5049368;28;20107;-56
2022/06/12 00:48:32;;;;;;;23.70;7.82;;;;;;;15.49;100.00;98546.91;5049267;28;20056;-57
2022/06/12 00:51:06;;;;;;;22.35;7.63;;;;;;;15.32;100.00;98540.75;5047822;28;20067;-57
2022/06/12 00:53:45;;;;;;;21.35;7.50;;;;;;;15.29;100.00;98540.06;5049266;28;20035;-56
2022/06/12 00:56:25;;;;;;;20.70;7.30;;;;;;;15.39;100.00;98538.66;5048812;28;20725;-56
2022/06/12 00:58:59;;;;;;;19.60;7.45;;;;;;;15.77;100.00;98530.56;5046204;28;20490;-56
2022/06/12 01:01:30;;;;;;;22.42;7.72;;;;;;;15.81;100.00;98529.47;5048673;28;20044;-56
2022/06/12 01:07:01;;;;;;;18.38;6.78;;;;;;;15.67;100.00;98531.94;4992206;28;20022;-56
2022/06/12 01:09:32;;;;;;;19.00;7.28;;;;;;;15.62;100.00;98534.81;5038708;28;20512;-56
2022/06/12 01:12:01;;;;;;;21.77;7.53;;;;;;;15.45;100.00;98530.44;5047599;28;20047;-56
2022/06/12 01:14:30;;;;;;;18.27;6.50;;;;;;;15.83;100.00;98530.22;5048959;28;21097;-56
2022/06/12 01:16:57;;;;;;;20.67;7.70;;;;;;;15.53;100.00;98523.03;5047242;28;20083;-56
2022/06/12 01:19:34;;;;;;;22.50;7.03;;;;;;;15.43;100.00;98537.56;5050006;28;20028;-56
2022/06/12 01:22:14;;;;;;;20.65;7.50;;;;;;;15.05;100.00;98537.75;5048575;28;20048;-56
2022/06/12 01:25:13;;;;;;;21.92;7.53;;;;;;;14.94;100.00;98535.69;5048182;28;20125;-57
2022/06/12 01:27:57;;;;;;;23.42;7.97;;;;;;;14.91;100.00;98535.00;5045113;28;20055;-56
2022/06/12 01:30:41;;;;;;;19.35;7.38;;;;;;;14.81;100.00;98538.09;5047139;28;20021;-56
2022/06/12 01:33:32;;;;;;;18.73;7.38;;;;;;;15.05;100.00;98540.38;5046873;28;20027;-56
2022/06/12 01:36:18;;;;;;;26.90;8.18;;;;;;;14.88;100.00;98537.75;5051218;28;20039;-57
2022/06/12 01:39:00;;;;;;;25.50;7.85;;;;;;;14.94;100.00;98535.69;5049432;28;20025;-57
2022/06/12 01:41:38;;;;;;;22.55;7.72;;;;;;;14.92;100.00;98531.41;5047155;28;20047;-56
2022/06/12 01:44:25;;;;;;;22.10;7.22;;;;;;;15.30;100.00;98531.25;5049076;28;20043;-56
2022/06/12 01:46:50;;;;;;;22.83;7.95;;;;;;;14.94;100.00;98534.81;5047407;28;20147;-56
2022/06/12 01:49:43;;;;;;;18.25;6.75;;;;;;;15.22;100.00;98539.53;5047535;28;20594;-55
2022/06/12 01:52:32;;;;;;;21.08;7.40;;;;;;;14.90;100.00;98533.28;5046167;28;20044;-57
2022/06/12 01:55:00;;;;;;;20.02;6.97;;;;;;;15.08;100.00;98537.59;5047732;28;20669;-57
2022/06/12 01:57:34;;;;;;;17.50;7.13;;;;;;;15.09;100.00;98538.44;5047933;28;20406;-56
2022/06/12 02:00:10;;;;;;;27.52;8.48;;;;;;;14.41;100.00;98532.13;5047256;28;20031;-57
2022/06/12 02:02:41;;;;;;;20.00;7.45;;;;;;;14.14;100.00;98541.31;5047466;28;20049;-55
2022/06/12 02:05:25;;;;;;;23.30;7.75;;;;;;;14.37;100.00;98535.81;5047161;28;20087;-56
2022/06/12 02:08:02;;;;;;;20.23;7.65;;;;;;;14.26;100.00;98535.44;5049874;28;20020;-58
2022/06/12 02:10:44;;;;;;;17.70;7.30;;;;;;;14.41;100.00;98537.38;5047852;28;20729;-57
2022/06/12 02:13:18;;;;;;;19.52;7.35;;;;;;;14.55;100.00;98533.22;5047806;28;20521;-56
2022/06/12 02:15:52;;;;;;;18.63;7.03;;;;;;;14.67;100.00;98532.66;5048803;28;20060;-55
2022/06/12 02:18:26;;;;;;;21.65;7.90;;;;;;;14.37;100.00;98535.81;5047931;28;20513;-55
2022/06/12 02:21:14;;;;;;;18.75;7.25;;;;;;;14.48;100.00;98535.28;5046858;28;20109;-55
2022/06/12 02:23:51;;;;;;;17.77;6.25;;;;;;;15.04;100.00;98542.16;5041399;28;20043;-55
2022/06/12 02:26:21;;;;;;;20.77;7.07;;;;;;;14.77;100.00;98531.25;5046730;28;20117;-55
2022/06/12 02:28:52;;;;;;;21.25;6.88;;;;;;;14.82;100.00;98531.88;5049891;28;20031;-56
2022/06/12 02:31:23;;;;;;;18.60;7.20;;;;;;;14.68;100.00;98534.34;5047738;28;20085;-56
2022/06/12 02:33:56;;;;;;;19.92;7.10;;;;;;;14.41;100.00;98534.75;5048662;28;20520;-56
2022/06/12 02:36:28;;;;;;;24.92;8.10;;;;;;;14.05;100.00;98535.53;5047670;28;20065;-56
2022/06/12 02:38:59;;;;;;;17.27;7.40;;;;;;;13.97;100.00;98531.56;5049284;28;20028;-57
2022/06/12 02:41:31;;;;;;;18.67;7.25;;;;;;;14.13;100.00;98532.56;5048220;28;20033;-56
2022/06/12 02:44:01;;;;;;;21.40;6.97;;;;;;;14.39;100.00;98533.97;5050601;28;20029;-55
2022/06/12 02:46:34;;;;;;;22.05;8.10;;;;;;;14.31;100.00;98530.84;5050035;28;20521;-56
2022/06/12 02:49:00;;;;;;;21.80;7.72;;;;;;;14.60;100.00;98526.00;5046821;28;20052;-55
2022/06/12 02:51:25;;;;;;;22.17;7.95;;;;;;;14.11;100.00;98544.06;5046685;28;20178;-55
2022/06/12 02:54:09;;;;;;;19.42;7.60;;;;;;;14.64;100.00;98532.78;5048143;28;20091;-55
2022/06/12 02:56:53;;;;;;;24.75;7.80;;;;;;;14.53;100.00;98529.81;5044566;28;20032;-55
2022/06/12 02:59:27;;;;;;;20.13;7.50;;;;;;;14.17;100.00;98534.13;5047749;28;20029;-56
2022/06/12 03:02:13;;;;;;;19.83;7.22;;;;;;;14.53;100.00;98535.06;5047378;28;20036;-55
2022/06/12 03:04:48;;;;;;;20.15;7.40;;;;;;;14.46;100.00;98535.38;5048944;28;20501;-56
2022/06/12 03:07:14;;;;;;;22.70;7.70;;;;;;;14.72;100.00;98529.78;5047179;28;20487;-56
2022/06/12 03:09:40;;;;;;;18.48;7.15;;;;;;;14.06;100.00;98534.63;5046429;28;20036;-56
2022/06/12 03:12:07;;;;;;;20.92;7.78;;;;;;;14.06;100.00;98532.00;5046454;28;20056;-55
2022/06/12 03:14:33;;;;;;;20.02;7.70;;;;;;;14.13;100.00;98537.81;5048510;28;20028;-57
2022/06/12 03:16:58;;;;;;;20.48;7.70;;;;;;;14.03;100.00;98541.78;5047682;28;20033;-56
2022/06/12 03:19:30;;;;;;;22.02;7.93;;;;;;;13.80;100.00;98540.22;5045957;28;20020;-55
2022/06/12 03:22:14;;;;;;;21.98;6.90;;;;;;;14.18;100.00;98535.81;5045989;28;20040;-57
2022/06/12 03:25:00;;;;;;;19.85;7.00;;;;;;;14.04;100.00;98533.88;5051067;28;20370;-56
2022/06/12 03:27:37;;;;;;;18.27;7.35;;;;;;;13.98;100.00;98539.38;5050968;28;20036;-55
2022/06/12 03:30:23;;;;;;;31.17;9.05;;;;;;;14.08;100.00;98539.81;5049219;28;20028;-54
2022/06/12 03:33:13;;;;;;;18.75;6.80;;;;;;;14.24;100.00;98545.16;5049730;28;20049;-55
2022/06/12 03:35:48;;;;;;;21.33;7.63;;;;;;;14.05;100.00;98538.16;5050562;28;20037;-60
2022/06/12 03:38:43;;;;;;;22.10;7.63;;;;;;;14.33;100.00;98539.50;5052217;28;20040;-55
2022/06/12 03:41:15;;;;;;;24.17;7.57;;;;;;;14.38;100.00;98537.50;5051167;28;20064;-55
2022/06/12 03:44:10;;;;;;;19.77;7.05;;;;;;;14.67;100.00;98543.16;5051201;28;20615;-55
2022/06/12 03:46:47;;;;;;;21.23;7.85;;;;;;;14.00;100.00;98548.00;5019283;28;20036;-54
2022/06/12 03:49:18;;;;;;;23.27;7.97;;;;;;;14.19;100.00;98541.91;5051044;28;20016;-56
2022/06/12 03:52:23;;;;;;;22.50;7.90;;;;;;;14.60;100.00;98542.59;5049693;28;20086;-56
2022/06/12 03:55:13;;;;;;;25.42;7.82;;;;;;;14.61;100.00;98538.19;5045412;28;20051;-55
2022/06/12 03:57:51;;;;;;;18.50;6.63;;;;;;;14.79;100.00;98537.28;5051943;28;20037;-55
2022/06/12 04:00:19;;;;;;;21.20;7.20;;;;;;;15.41;100.00;98534.16;5049602;28;20499;-56
2022/06/12 04:02:51;;;;;;;19.90;6.60;;;;;;;15.76;100.00;98529.69;5051382;28;20120;-55
2022/06/12 04:05:28;;;;;;;19.58;7.47;;;;;;;15.42;100.00;98528.00;5048353;28;20059;-55
2022/06/12 04:07:56;;;;;;;20.40;6.78;;;;;;;15.82;100.00;98525.88;5050738;28;20092;-55
2022/06/12 04:10:25;;;;;;;21.48;7.25;;;;;;;15.91;100.00;98530.66;5047722;28;20258;-55
2022/06/12 04:12:51;;;;;;;18.10;6.70;;;;;;;15.82;100.00;98531.16;5050523;28;20021;-55
2022/06/12 04:15:43;;;;;;;18.60;6.53;;;;;;;16.08;100.00;98532.38;5049273;28;20211;-55
2022/06/12 04:18:09;;;;;;;24.57;7.67;;;;;;;17.17;100.00;98529.72;5050897;28;20055;-55
2022/06/12 04:21:10;;;;;;;17.88;6.50;;;;;;;17.59;100.00;98517.53;5048895;28;20268;-54
2022/06/12 04:23:42;;;;;;;18.88;6.72;;;;;;;18.71;100.00;98509.56;5040433;28;20048;-57
2022/06/12 04:26:21;;;;;;;20.20;6.30;;;;;;;19.31;100.00;98509.06;5049519;28;20112;-59
2022/06/12 04:28:58;;;;;;;21.05;6.88;;;;;;;19.16;100.00;98505.66;5050271;28;20141;-57
2022/06/12 04:31:25;;;;;;;20.17;6.10;;;;;;;20.02;100.00;98510.28;5048923;28;20418;-55
2022/06/12 04:33:56;;;;;;;17.00;6.07;;;;;;;19.73;100.00;98499.13;5050341;28;20036;-55
2022/06/12 04:36:23;;;;;;;17.05;6.68;;;;;;;17.32;100.00;98515.66;5049652;28;20098;-56
2022/06/12 04:38:48;;;;;;;19.40;7.00;;;;;;;18.88;100.00;98506.69;5050124;28;20024;-56
2022/06/12 04:41:37;;;;;;;19.65;6.85;;;;;;;17.71;100.00;98514.13;5048259;28;20033;-56
2022/06/12 04:44:04;;;;;;;17.75;6.72;;;;;;;17.92;100.00;98512.84;5048245;28;20029;-56
2022/06/12 04:46:31;;;;;;;19.63;6.63;;;;;;;18.94;100.00;98511.56;5050149;28;20131;-55
2022/06/12 04:48:59;;;;;;;18.70;6.22;;;;;;;18.23;100.00;98505.63;5047453;28;20372;-55
2022/06/12 04:51:25;;;;;;;16.08;5.82;;;;;;;19.35;100.00;98504.41;5049840;28;20510;-55
2022/06/12 04:53:52;;;;;;;17.75;6.70;;;;;;;19.44;100.00;98504.59;5051139;28;20039;-56
2022/06/12 04:56:20;;;;;;;16.70;6.07;;;;;;;21.99;100.00;98504.38;5047670;28;20291;-57
2022/06/12 04:58:45;;;;;;;17.92;5.60;;;;;;;22.08;100.00;98496.50;5049492;28;20025;-55
2022/06/12 05:01:12;;;;;;;11.77;5.10;;;;;;;24.44;100.00;98490.69;5046011;28;20040;-57
2022/06/12 05:03:38;;;;;;;13.00;5.22;;;;;;;26.29;82.00;98494.75;5051318;28;20028;-56
2022/06/12 05:06:04;;;;;;;16.50;6.13;;;;;;;26.35;75.83;98504.84;5049703;28;20047;-57
2022/06/12 05:08:31;;;;;;;16.77;5.80;;;;;;;27.71;69.89;98499.25;5049708;28;20033;-57
2022/06/12 05:10:57;;;;;;;11.43;5.05;;;;;;;27.39;64.44;98495.41;5047611;28;20095;-57
2022/06/12 05:13:22;;;;;;;10.38;4.43;;;;;;;28.29;61.95;98496.81;5049205;28;20063;-57
2022/06/12 05:15:48;;;;;;;8.65;4.30;;;;;;;29.36;55.41;98501.28;5049231;28;20033;-56
2022/06/12 05:18:16;;;;;;;12.60;4.93;;;;;;;29.94;54.65;98493.06;5049460;28;20123;-57
2022/06/12 05:20:42;;;;;;;9.68;4.40;;;;;;;30.80;50.53;98496.59;5049399;28;20102;-57
2022/06/12 05:23:08;;;;;;;11.50;4.53;;;;;;;30.64;51.58;98494.03;5050094;28;20017;-58
2022/06/12 05:25:34;;;;;;;10.25;4.30;;;;;;;31.97;46.96;98488.03;5050922;28;20513;-57
2022/06/12 05:28:01;;;;;;;10.55;4.10;;;;;;;30.35;49.08;98485.66;5049448;28;20044;-58
2022/06/12 05:30:29;;;;;;;8.55;4.00;;;;;;;32.34;44.96;98480.81;5046500;28;20025;-57
2022/06/12 05:32:57;;;;;;;8.20;4.15;;;;;;;32.78;43.10;98476.31;5047944;28;20028;-58
2022/06/12 05:35:23;;;;;;;9.23;3.67;;;;;;;32.19;43.44;98477.34;5049551;28;20071;-56
2022/06/12 05:37:50;;;;;;;5.85;3.60;;;;;;;33.70;41.88;98479.94;5050074;28;20112;-57
2022/06/12 05:40:28;;;;;;;6.47;3.40;;;;;;;34.23;39.95;98480.19;5047312;28;20671;-57
2022/06/12 05:42:54;;;;;;;5.53;3.42;;;;;;;31.56;44.26;98480.47;5050681;28;20928;-57
2022/06/12 05:45:23;;;;;;;7.95;3.78;;;;;;;33.22;42.18;98480.66;5048429;28;20198;-57
2022/06/12 05:47:53;;;;;;;9.82;3.78;;;;;;;32.36;43.43;98478.75;5050441;28;20024;-56
2022/06/12 05:50:21;;;;;;;6.60;3.67;;;;;;;34.23;40.04;98477.47;5045079;28;20716;-55
2022/06/12 05:52:46;;;;;;;6.50;3.35;;;;;;;33.39;40.51;98481.16;5048998;28;20063;-57
2022/06/12 05:55:12;;;;;;;7.80;3.55;;;;;;;34.01;38.81;98481.31;5048371;28;20058;-57
2022/06/12 05:57:38;;;;;;;6.00;3.20;;;;;;;35.29;37.54;98479.50;5046897;28;20033;-56
2022/06/12 06:00:07;;;;;;;6.50;3.70;;;;;;;34.76;37.10;98474.06;5046440;28;20265;-57
2022/06/12 06:02:34;;;;;;;5.22;3.20;;;;;;;33.23;39.32;98475.03;5048836;28;20045;-57
2022/06/12 06:05:00;;;;;;;6.40;3.17;;;;;;;34.21;38.03;98471.44;5049553;28;20025;-58
2022/06/12 06:07:26;;;;;;;5.22;3.00;;;;;;;35.67;36.42;98467.09;5046968;28;20040;-58
2022/06/12 06:09:51;;;;;;;5.88;3.22;;;;;;;34.06;37.81;98468.00;5048870;28;20020;-58
2022/06/12 06:12:16;;;;;;;5.15;2.90;;;;;;;35.60;36.61;98466.28;5047976;28;20045;-57
2022/06/12 06:14:42;;;;;;;6.25;3.47;;;;;;;35.92;35.29;98469.97;5049767;28;20024;-59
2022/06/12 06:17:07;;;;;;;5.43;3.15;;;;;;;35.95;35.70;98471.41;5054302;28;20777;-58
2022/06/12 06:19:32;;;;;;;4.78;2.95;;;;;;;35.27;38.33;98470.75;5047143;28;20333;-57
2022/06/12 06:21:58;;;;;;;5.20;3.22;;;;;;;33.95;39.90;98472.97;5047078;28;20063;-57
2022/06/12 06:24:23;;;;;;;6.60;2.95;;;;;;;36.43;36.10;98462.81;5047106;28;20028;-59
2022/06/12 06:26:49;;;;;;;6.45;3.08;;;;;;;35.11;36.41;98471.97;5048364;28;20052;-57
2022/06/12 06:29:14;;;;;;;5.10;3.00;;;;;;;36.49;35.32;98467.41;5047638;28;20056;-57
2022/06/12 06:31:39;;;;;;;4.63;3.00;;;;;;;33.86;38.03;98474.19;5046508;28;20043;-57
2022/06/12 06:34:05;;;;;;;4.72;3.00;;;;;;;34.81;37.08;98465.31;5048773;28;20059;-59
2022/06/12 06:36:31;;;;;;;4.75;3.00;;;;;;;33.64;39.63;98469.84;5048239;28;20039;-58
2022/06/12 06:38:57;;;;;;;4.85;2.90;;;;;;;36.59;35.35;98472.34;5045327;28;20086;-57
2022/06/12 06:41:24;;;;;;;5.55;2.70;;;;;;;35.98;35.73;98474.53;5045752;28;20051;-58
2022/06/12 06:46:34;;;;;;;7.18;2.90;;;;;;;37.39;34.21;98467.09;5047846;28;20116;-57
2022/06/12 06:49:00;;;;;;;5.25;2.90;;;;;;;38.04;32.59;98468.47;5048675;28;20028;-59
2022/06/12 06:51:26;;;;;;;4.95;2.78;;;;;;;34.04;37.43;98470.06;5054856;28;20588;-58
2022/06/12 06:53:51;;;;;;;4.22;2.63;;;;;;;38.25;32.33;98471.78;5048777;28;20032;-57
2022/06/12 06:56:17;;;;;;;5.38;2.75;;;;;;;37.90;32.97;98469.69;5046583;28;20036;-59
2022/06/12 06:58:43;;;;;;;5.53;3.00;;;;;;;35.61;35.10;98466.06;5049060;28;20370;-57
2022/06/12 07:01:09;;;;;;;4.53;2.90;;;;;;;36.59;33.80;98467.72;5048856;28;20044;-57
2022/06/12 07:03:34;;;;;;;4.32;2.78;;;;;;;37.86;32.69;98472.03;5048530;28;20083;-57
2022/06/12 07:06:00;;;;;;;4.32;2.70;;;;;;;38.21;31.99;98462.41;5050197;28;20037;-58
2022/06/12 07:08:26;;;;;;;5.80;2.85;;;;;;;37.80;32.59;98462.06;5051795;28;20028;-58
2022/06/12 07:10:53;;;;;;;5.40;2.97;;;;;;;36.56;33.53;98468.19;5049945;28;20844;-58
2022/06/12 07:13:19;;;;;;;4.15;2.70;;;;;;;36.65;33.71;98460.56;5052448;28;20626;-59
2022/06/12 07:15:45;;;;;;;5.65;3.05;;;;;;;36.95;34.15;98459.97;5049791;28;20040;-57
2022/06/12 07:18:12;;;;;;;7.45;2.97;;;;;;;38.73;30.80;98457.28;5051271;28;20410;-58
2022/06/12 07:20:42;;;;;;;4.80;2.70;;;;;;;39.15;30.51;98459.94;5050561;28;20203;-58
2022/06/12 07:23:08;;;;;;;5.50;3.03;;;;;;;37.84;31.49;98459.72;5051684;28;20323;-58
2022/06/12 07:25:40;;;;;;;5.63;2.90;;;;;;;36.95;32.85;98455.34;5049206;28;20032;-58
2022/06/12 07:28:06;;;;;;;9.23;2.80;;;;;;;36.81;33.32;98448.38;5053038;28;20548;-58
2022/06/12 07:30:32;;;;;;;5.80;2.88;;;;;;;38.18;31.28;98450.94;5048764;28;20779;-60
2022/06/12 07:32:57;;;;;;;5.78;2.60;;;;;;;38.24;32.30;98451.91;5051578;28;20054;-58
2022/06/12 07:35:23;;;;;;;5.93;2.92;;;;;;;37.50;32.34;98457.38;5050509;28;20033;-58
2022/06/12 07:37:49;;;;;;;6.68;2.90;;;;;;;40.64;28.58;98446.59;5052090;28;20032;-58
2022/06/12 07:40:22;;;;;;;6.00;2.70;;;;;;;36.47;33.39;98453.19;5047941;28;20025;-58
2022/06/12 07:42:47;;;;;;;4.07;2.53;;;;;;;37.75;32.00;98451.84;5050451;28;20098;-58
2022/06/12 07:45:14;;;;;;;4.88;2.60;;;;;;;37.87;31.54;98449.22;5050199;28;20451;-58
2022/06/12 07:47:40;;;;;;;4.57;2.60;;;;;;;38.34;31.76;98448.59;5050272;28;20037;-60
2022/06/12 07:50:06;;;;;;;5.85;3.00;;;;;;;38.84;31.60;98452.88;5049558;28;20029;-58
2022/06/12 07:52:32;;;;;;;5.53;2.70;;;;;;;39.56;29.29;98449.13;5051297;28;20044;-59
2022/06/12 07:54:57;;;;;;;4.55;2.53;;;;;;;38.87;30.80;98445.06;5051141;28;20031;-58
2022/06/12 07:57:23;;;;;;;4.30;2.55;;;;;;;37.59;31.73;98438.84;5050313;28;20033;-58
2022/06/12 07:59:48;;;;;;;4.20;2.67;;;;;;;37.96;31.21;98441.56;5050923;28;20432;-58
2022/06/12 08:02:14;;;;;;;5.03;2.63;;;;;;;37.36;32.22;98444.97;5051589;28;20044;-58
2022/06/12 08:04:39;;;;;;;5.72;2.50;;;;;;;37.24;31.99;98431.28;5050817;28;20275;-58
2022/06/12 08:07:05;;;;;;;5.97;2.60;;;;;;;37.85;31.00;98442.31;5048465;28;20036;-57
2022/06/12 08:09:31;;;;;;;7.43;2.58;;;;;;;37.73;31.09;98434.94;5048989;28;20036;-59
2022/06/12 08:11:56;;;;;;;4.35;2.60;;;;;;;37.77;29.95;98444.31;5049992;28;20035;-58
2022/06/12 08:14:23;;;;;;;4.57;2.20;;;;;;;36.65;31.21;98439.69;5047999;28;20041;-58
2022/06/12 08:16:49;;;;;;;6.40;2.30;;;;;;;38.05;29.80;98432.03;5051132;28;20039;-57
2022/06/12 08:22:02;;;;;;;5.88;2.50;;;;;;;36.93;30.08;98433.00;5050337;28;20039;-58
2022/06/12 08:24:28;;;;;;;5.15;2.50;;;;;;;36.94;29.25;98431.09;5051254;28;20029;-59
2022/06/12 08:26:54;;;;;;;4.68;2.10;;;;;;;37.51;29.29;98425.53;5050095;28;20052;-57
2022/06/12 08:29:19;;;;;;;4.13;1.92;;;;;;;37.30;28.43;98424.94;5050474;28;20062;-59
2022/06/12 08:31:49;;;;;;;6.40;2.10;;;;;;;36.96;29.12;98423.56;5049341;28;20518;-57
2022/06/12 08:34:22;;;;;;;6.53;2.33;;;;;;;36.82;29.49;98425.59;5051388;28;20654;-58
2022/06/12 08:36:54;;;;;;;4.05;2.15;;;;;;;37.75;28.96;98421.09;5048172;28;20302;-58
2022/06/12 08:39:20;;;;;;;4.50;2.40;;;;;;;37.47;29.13;98418.91;5049802;28;20119;-61
2022/06/12 08:41:54;;;;;;;4.30;2.08;;;;;;;37.73;30.05;98424.03;5048860;28;20128;-58
2022/06/12 08:44:46;;;;;;;6.07;2.15;;;;;;;38.24;28.37;98418.38;5048833;28;20499;-59
2022/06/12 08:47:22;;;;;;;4.18;2.20;;;;;;;37.83;28.79;98409.06;5040495;28;20552;-61
2022/06/12 08:50:25;;;;;;;4.15;2.20;;;;;;;37.04;28.82;98405.09;5049301;28;20411;-57
2022/06/12 08:52:58;;;;;;;5.28;2.30;;;;;;;37.38;29.23;98399.31;5047806;28;20048;-58
2022/06/12 08:55:44;;;;;;;4.88;2.42;;;;;;;36.56;29.13;98402.97;5045286;28;20076;-60
2022/06/12 08:58:10;;;;;;;4.82;2.15;;;;;;;36.54;26.78;98396.94;5050341;28;21076;-59
2022/06/12 09:00:37;;;;;;;4.13;2.03;;;;;;;38.41;26.31;98399.47;5049314;28;20621;-60
2022/06/12 09:03:06;;;;;;;6.15;2.38;;;;;;;36.74;29.47;98388.63;5051021;28;20266;-58
2022/06/12 09:05:44;;;;;;;4.32;2.22;;;;;;;36.98;28.72;98389.69;5049068;28;20044;-58
2022/06/12 09:08:38;;;;;;;4.72;2.30;;;;;;;35.86;28.27;98384.81;5051278;28;20031;-58
2022/06/12 09:11:12;;;;;;;5.32;2.42;;;;;;;36.61;28.18;98392.25;5048850;28;20040;-59
2022/06/12 09:13:37;;;;;;;3.78;2.08;;;;;;;36.43;27.49;98390.31;5048563;28;20021;-59
2022/06/12 09:16:30;;;;;;;5.17;2.40;;;;;;;35.94;28.52;98388.31;5050492;28;20048;-60
2022/06/12 09:19:07;;;;;;;4.68;2.10;;;;;;;35.83;28.85;98382.53;5049607;28;20343;-58
2022/06/12 09:22:12;;;;;;;5.30;2.28;;;;;;;36.66;27.58;98384.31;5048787;28;20471;-60
2022/06/12 09:24:43;;;;;;;5.03;2.40;;;;;;;36.05;28.05;98377.59;4987278;28;20329;-58
2022/06/12 09:27:11;;;;;;;;;;;;;;;36.76;27.06;98375.66;4988882;28;20072;-59
2022/06/12 09:30:11;;;;;;;8.18;2.40;;;;;;;36.84;26.64;98371.81;5019030;28;19913;-58
2022/06/12 09:32:55;;;;;;;7.10;2.30;;;;;;;35.32;29.12;98367.88;5049185;28;20113;-58
2022/06/12 09:36:01;;;;;;;4.13;2.10;;;;;;;37.10;27.47;98369.91;5049583;28;20032;-59
2022/06/12 09:38:33;;;;;;;5.88;2.40;;;;;;;34.58;29.13;98368.19;5047956;28;20151;-58
2022/06/12 09:41:17;;;;;;;5.90;2.50;;;;;;;34.82;29.04;98364.03;5048239;28;20039;-58
2022/06/12 09:43:51;;;;;;;6.13;2.50;;;;;;;37.48;26.88;98355.25;5049451;28;20029;-58
2022/06/12 09:46:37;;;;;;;5.38;2.35;;;;;;;35.21;29.20;98365.00;5047941;28;20687;-58
2022/06/12 09:49:02;;;;;;;6.93;2.40;;;;;;;35.93;29.61;98364.94;5045213;28;20039;-60
2022/06/12 09:51:50;;;;;;;7.17;2.53;;;;;;;35.49;28.94;98364.69;5045955;28;20064;-59
2022/06/12 09:54:33;;;;;;;5.82;2.40;;;;;;;35.86;28.56;98359.53;5044832;28;20108;-59
2022/06/12 09:57:23;;;;;;;5.63;2.42;;;;;;;36.10;29.82;98352.53;5050241;28;20040;-59
2022/06/12 10:00:03;;;;;;;6.78;2.63;;;;;;;35.62;28.55;98347.53;5048202;28;20501;-58
2022/06/12 10:02:32;;;;;;;5.47;2.60;;;;;;;37.01;26.86;98345.72;5047980;28;20040;-58
2022/06/12 10:05:18;;;;;;;6.68;2.53;;;;;;;36.96;26.25;98342.00;5049518;28;20116;-58
2022/06/12 10:08:00;;;;;;;4.93;2.30;;;;;;;34.11;30.61;98335.59;5049782;28;20375;-58
2022/06/12 10:10:30;;;;;;;;;;;;;;;34.70;30.27;98339.41;5048490;28;20048;-58
2022/06/12 10:13:06;;;;;;;5.65;2.40;;;;;;;34.12;30.32;98329.16;5048874;28;19915;-60
2022/06/12 10:15:38;;;;;;;5.53;2.50;;;;;;;36.34;30.44;98333.75;5049386;28;20040;-58
2022/06/12 10:18:09;;;;;;;7.57;2.33;;;;;;;35.96;29.17;98335.47;5047047;28;20034;-59
2022/06/12 10:20:43;;;;;;;5.03;2.20;;;;;;;35.26;29.91;98329.97;5044010;28;20131;-60
2022/06/12 10:23:08;;;;;;;6.22;2.50;;;;;;;35.65;29.06;98328.09;5045827;28;20029;-58
2022/06/12 10:25:52;;;;;;;5.88;2.47;;;;;;;36.05;29.54;98330.63;5048235;28;20068;-58
2022/06/12 10:28:37;;;;;;;5.20;2.45;;;;;;;36.25;28.30;98325.91;5047069;28;20513;-58
2022/06/12 10:31:18;;;;;;;7.18;2.65;;;;;;;35.17;29.34;98318.47;5047639;28;20982;-58
2022/06/12 10:34:07;;;;;;;5.65;2.45;;;;;;;35.94;28.69;98317.75;5050714;28;20029;-61
2022/06/12 10:36:33;;;;;;;5.03;2.28;;;;;;;35.55;29.46;98315.03;5049151;28;20068;-57
2022/06/12 10:39:06;;;;;;;5.35;2.40;;;;;;;34.36;30.87;98306.91;5051572;28;20017;-58
2022/06/12 10:41:32;;;;;;;6.28;2.42;;;;;;;33.83;30.43;98304.13;5060461;28;20044;-58
2022/06/12 10:43:58;;;;;;;5.90;2.50;;;;;;;35.66;29.86;98299.91;5053504;28;20024;-59
2022/06/12 10:46:27;;;;;;;4.95;2.30;;;;;;;36.97;28.48;98300.19;5052112;28;20105;-59
2022/06/12 10:48:56;;;;;;;7.32;2.58;;;;;;;36.70;28.15;98295.03;5051235;28;20032;-58
2022/06/12 10:51:38;;;;;;;6.47;2.60;;;;;;;35.59;29.63;98286.41;5049024;28;20064;-58
2022/06/12 10:54:21;;;;;;;6.72;2.35;;;;;;;36.08;28.81;98275.88;5050319;28;20521;-58
2022/06/12 10:57:01;;;;;;;4.22;2.13;;;;;;;36.26;29.34;98277.84;5052127;28;20070;-60
2022/06/12 10:59:37;;;;;;;5.63;2.38;;;;;;;34.69;31.04;98284.41;5052351;28;20051;-58
2022/06/12 11:02:03;;;;;;;6.07;2.50;;;;;;;34.68;30.50;98287.31;5052122;28;20070;-58
2022/06/12 11:04:47;;;;;;;6.68;2.50;;;;;;;35.95;29.61;98284.13;5053596;28;20410;-58
2022/06/12 11:07:21;;;;;;;6.88;2.40;;;;;;;35.30;29.46;98285.09;5052091;28;20041;-59
2022/06/12 11:10:02;;;;;;;6.03;2.28;;;;;;;35.26;30.89;98275.72;5051126;28;20504;-59
2022/06/12 11:12:30;;;;;;;6.20;2.23;;;;;;;32.95;34.55;98277.75;5051272;28;20068;-58
2022/06/12 11:15:14;;;;;;;6.03;2.30;;;;;;;33.40;33.80;98274.66;5051580;28;20321;-59
2022/06/12 11:18:14;;;;;;;7.05;2.67;;;;;;;35.16;32.45;98273.44;5053993;28;20498;-58
2022/06/12 11:20:45;;;;;;;5.43;2.45;;;;;;;36.75;30.98;98269.91;5048734;28;20044;-58
2022/06/12 11:23:26;;;;;;;4.85;2.33;;;;;;;35.54;31.39;98275.38;5048434;28;20662;-58
2022/06/12 11:25:51;;;;;;;5.93;2.13;;;;;;;36.33;32.80;98267.75;5052050;28;20048;-59
2022/06/12 11:28:31;;;;;;;5.78;2.22;;;;;;;33.55;36.82;98278.03;5052192;28;20031;-59
2022/06/12 11:31:12;;;;;;;6.78;2.47;;;;;;;33.51;35.29;98265.97;5051758;28;20044;-58
2022/06/12 11:33:59;;;;;;;7.72;2.70;;;;;;;34.54;33.28;98264.84;5050593;28;20032;-58
2022/06/12 11:36:43;;;;;;;8.73;2.53;;;;;;;34.65;32.71;98260.63;5050035;28;20064;-59
2022/06/12 11:39:25;;;;;;;8.05;2.70;;;;;;;33.10;33.28;98258.69;5048946;28;20016;-58
2022/06/12 11:42:15;;;;;;;7.45;2.72;;;;;;;33.22;32.76;98254.44;5050215;28;20041;-58
2022/06/12 11:44:54;;;;;;;6.65;2.45;;;;;;;32.52;34.62;98250.06;5049522;28;20020;-60
2022/06/12 11:47:36;;;;;;;12.05;2.70;;;;;;;32.88;35.03;98238.25;5051386;28;20033;-59
2022/06/12 11:50:52;;;;;;;9.52;3.42;;;;;;;33.42;34.02;98240.16;5049797;28;20036;-59
2022/06/12 11:53:39;;;;;;;7.78;2.88;;;;;;;33.88;34.02;98234.00;5013896;28;20044;-56
2022/06/12 11:56:29;;;;;;;7.85;2.88;;;;;;;34.52;33.12;98234.41;5050094;28;20115;-58
2022/06/12 11:59:07;;;;;;;7.30;2.90;;;;;;;34.18;33.52;98228.22;5049578;28;20479;-60
2022/06/12 12:02:02;;;;;;;7.55;2.40;;;;;;;33.06;33.78;98225.03;5048463;28;20032;-60
2022/06/12 12:04:42;;;;;;;7.03;2.60;;;;;;;34.21;32.97;98221.53;5050572;28;20059;-58